Time;durP1;ratioP1;P1;durP2;ratioP2;P2;SDS_P1;SDS_P2;PMS_P1;PMS_P2;Temp;Humidity;BMP_temperature;BMP_pressure;BME280_temperature;BME280_humidity;BME280_pressure;Samples;Min_cycle;Max_cycle;Signal;HPM_P1;HPM_P2
2022/12/24 00:01:29;;;;;;;23.88;9.73;;;20.70;57.30;;;;;;5082905;28;20737;-69
2022/12/24 00:03:55;;;;;;;18.48;9.27;;;21.00;39.40;;;;;;5079758;28;20104;-67
2022/12/24 00:06:23;;;;;;;24.85;10.65;;;21.30;58.20;;;;;;5082478;28;20075;-66
2022/12/24 00:08:50;;;;;;;24.92;9.05;;;20.90;40.50;;;;;;5081560;28;20519;-69
2022/12/24 00:11:17;;;;;;;25.02;9.15;;;20.70;60.40;;;;;;5078236;28;20616;-68
2022/12/24 00:13:44;;;;;;;24.30;8.43;;;20.80;40.70;;;;;;5079913;28;20084;-68
2022/12/24 00:16:10;;;;;;;20.75;8.50;;;20.70;41.00;;;;;;5078310;28;20077;-68
2022/12/24 00:18:36;;;;;;;27.35;8.75;;;20.70;41.10;;;;;;5077484;28;20092;-68
2022/12/24 00:21:05;;;;;;;21.67;8.13;;;20.60;41.80;;;;;;5079874;28;20098;-67
2022/12/24 00:23:32;;;;;;;20.60;8.07;;;20.50;41.90;;;;;;5076375;28;20522;-68
2022/12/24 00:25:58;;;;;;;16.98;7.50;;;20.80;61.80;;;;;;5080541;28;20521;-69
2022/12/24 00:28:24;;;;;;;22.77;8.13;;;19.50;68.10;;;;;;5085842;28;20077;-68
2022/12/24 00:30:51;;;;;;;29.80;8.80;;;;;;;;;;5077534;28;20079;-70
2022/12/24 00:33:17;;;;;;;33.40;8.05;;;;;;;;;;5078758;28;20069;-66
2022/12/24 00:35:44;;;;;;;36.83;8.80;;;19.00;45.90;;;;;;5077333;28;20086;-68
2022/12/24 00:38:10;;;;;;;24.55;7.78;;;19.70;47.70;;;;;;5082547;28;20146;-68
2022/12/24 00:40:36;;;;;;;23.80;8.27;;;18.90;79.60;;;;;;5077550;28;20606;-67
2022/12/24 00:43:03;;;;;;;35.53;8.10;;;19.40;44.40;;;;;;5079113;28;20471;-68
2022/12/24 00:45:29;;;;;;;30.33;8.82;;;19.50;44.90;;;;;;5083665;28;20078;-66
2022/12/24 00:47:56;;;;;;;26.50;9.57;;;;;;;;;;5078500;28;20088;-69
2022/12/24 00:50:22;;;;;;;42.22;9.07;;;19.70;90.40;;;;;;5078412;28;20068;-68
2022/12/24 00:52:49;;;;;;;27.60;9.30;;;18.70;45.80;;;;;;5081887;28;20069;-67
2022/12/24 00:55:15;;;;;;;32.90;9.93;;;18.90;46.40;;;;;;5081781;28;20096;-68
2022/12/24 00:57:42;;;;;;;34.88;10.52;;;18.80;46.90;;;;;;5080262;28;20195;-68
2022/12/24 01:00:09;;;;;;;50.15;10.23;;;18.70;47.10;;;;;;5080707;28;20076;-66
2022/12/24 01:02:35;;;;;;;39.25;10.65;;;18.60;47.60;;;;;;5085242;28;20069;-67
2022/12/24 01:05:11;;;;;;;34.50;11.05;;;18.50;48.00;;;;;;5083273;28;20080;-69
2022/12/24 01:07:39;;;;;;;44.88;10.77;;;18.20;60.50;;;;;;5085151;28;20545;-67
2022/12/24 01:10:07;;;;;;;32.83;9.98;;;18.20;49.00;;;;;;5075601;28;20089;-66
2022/12/24 01:12:33;;;;;;;40.85;18.92;;;17.80;85.40;;;;;;5080708;28;20079;-68
2022/12/24 01:14:59;;;;;;;24.98;10.38;;;17.30;75.00;;;;;;5084429;28;20070;-67
2022/12/24 01:17:26;;;;;;;33.10;10.10;;;17.90;49.80;;;;;;5079140;28;20080;-69
2022/12/24 01:19:52;;;;;;;41.38;10.02;;;17.80;49.90;;;;;;5075498;28;20065;-68
2022/12/24 01:22:19;;;;;;;40.15;10.60;;;17.70;50.00;;;;;;5082211;28;20149;-69
2022/12/24 01:24:45;;;;;;;48.67;10.93;;;17.60;50.30;;;;;;5079037;28;20535;-67
2022/12/24 01:27:12;;;;;;;41.45;11.23;;;17.60;50.70;;;;;;5082716;28;20080;-68
2022/12/24 01:29:38;;;;;;;43.10;11.68;;;17.50;51.10;;;;;;5080680;28;20104;-68
2022/12/24 01:32:05;;;;;;;40.05;10.95;;;17.40;51.30;;;;;;5079597;28;20077;-68
2022/12/24 01:34:31;;;;;;;43.35;11.85;;;17.30;51.50;;;;;;5078410;28;20147;-68
2022/12/24 01:36:57;;;;;;;56.22;13.13;;;17.20;51.60;;;;;;5084042;28;20131;-70
2022/12/24 01:39:24;;;;;;;50.88;14.05;;;17.10;51.90;;;;;;5084409;28;20069;-68
2022/12/24 01:44:40;;;;;;;58.83;15.00;;;17.00;53.00;;;;;;5085024;28;20084;-68
2022/12/24 01:47:28;;;;;;;52.53;15.48;;;16.80;53.20;;;;;;5079472;28;20511;-68
2022/12/24 01:50:00;;;;;;;57.47;15.52;;;16.80;53.40;;;;;;5079283;28;20076;-68
2022/12/24 01:52:36;;;;;;;59.17;14.55;;;16.80;53.90;;;;;;5084161;28;20092;-68
2022/12/24 01:55:11;;;;;;;82.82;16.83;;;16.70;54.20;;;;;;5082294;28;20072;-66
2022/12/24 01:57:41;;;;;;;61.70;16.00;;;16.60;54.70;;;;;;5080740;28;20124;-67
2022/12/24 02:00:13;;;;;;;60.55;16.42;;;16.50;55.00;;;;;;5078387;28;20135;-69
2022/12/24 02:02:44;;;;;;;60.97;15.98;;;16.50;55.00;;;;;;5074708;28;20084;-68
2022/12/24 02:05:30;;;;;;;56.75;15.88;;;16.40;55.10;;;;;;5071940;28;20069;-69
2022/12/24 02:07:58;;;;;;;64.97;16.63;;;16.30;55.20;;;;;;5079827;28;20077;-68
2022/12/24 02:10:25;;;;;;;61.33;17.25;;;16.20;55.30;;;;;;5081758;28;20168;-68
2022/12/24 02:12:51;;;;;;;53.15;16.52;;;16.10;55.50;;;;;;5079218;28;20142;-67
2022/12/24 02:15:19;;;;;;;65.00;16.95;;;16.10;55.80;;;;;;5080095;28;20080;-68
2022/12/24 02:18:21;;;;;;;79.97;19.27;;;16.00;56.10;;;;;;5078562;28;20080;-68
2022/12/24 02:21:14;;;;;;;66.78;20.55;;;16.00;56.60;;;;;;5076256;28;20578;-69
2022/12/24 02:24:01;;;;;;;53.40;20.15;;;15.90;57.00;;;;;;5081533;28;20526;-67
2022/12/24 02:26:49;;;;;;;78.50;20.08;;;15.90;57.10;;;;;;5082576;28;20077;-66
2022/12/24 02:29:36;;;;;;;;;;;15.90;57.20;;;;;;5083644;28;20069;-67
2022/12/24 02:32:10;;;;;;;76.35;19.02;;;15.90;57.80;;;;;;5074312;28;20009;-68
2022/12/24 02:34:48;;;;;;;68.40;19.08;;;15.80;57.70;;;;;;5080036;28;20133;-69
2022/12/24 02:37:37;;;;;;;61.17;18.83;;;15.80;57.90;;;;;;5075495;28;20092;-68
2022/12/24 02:40:10;;;;;;;64.70;19.25;;;15.70;58.10;;;;;;5078058;28;20537;-68
2022/12/24 02:42:46;;;;;;;55.22;18.90;;;15.70;58.40;;;;;;5078002;28;20469;-69
2022/12/24 02:45:34;;;;;;;67.32;19.73;;;15.60;58.50;;;;;;5088128;28;20069;-69
2022/12/24 02:48:00;;;;;;;;;;;15.60;59.10;;;;;;5078927;28;20116;-68
2022/12/24 02:50:27;;;;;;;81.78;20.80;;;15.50;58.60;;;;;;5080798;28;19957;-69
2022/12/24 02:52:53;;;;;;;73.93;21.50;;;15.40;58.60;;;;;;5081951;28;20144;-70
2022/12/24 02:55:27;;;;;;;;;;;15.40;58.90;;;;;;5080402;28;20071;-69
2022/12/24 02:58:30;;;;;;;68.60;23.95;;;15.40;59.70;;;;;;5082992;28;19984;-68
2022/12/24 03:01:15;;;;;;;87.32;21.83;;;15.40;60.10;;;;;;5076297;28;20089;-67
2022/12/24 03:04:38;;;;;;;91.45;25.27;;;15.30;60.10;;;;;;5083024;28;20425;-68
2022/12/24 03:07:20;;;;;;;69.78;24.67;;;15.30;59.90;;;;;;5063217;28;20096;-70
2022/12/24 03:10:12;;;;;;;87.00;28.73;;;15.20;60.40;;;;;;5082356;28;20076;-66
2022/12/24 03:12:43;;;;;;;91.78;28.85;;;15.10;60.80;;;;;;5080496;28;20073;-69
2022/12/24 03:15:13;;;;;;;88.75;31.40;;;15.00;60.70;;;;;;5076962;28;20084;-68
2022/12/24 03:17:42;;;;;;;106.47;37.08;;;15.00;61.20;;;;;;5080251;28;20146;-69
2022/12/24 03:20:12;;;;;;;97.15;35.58;;;14.90;61.20;;;;;;5084457;28;20073;-69
2022/12/24 03:22:38;;;;;;;95.68;33.47;;;14.90;61.40;;;;;;5081779;28;20548;-69
2022/12/24 03:25:06;;;;;;;111.72;33.28;;;14.90;61.70;;;;;;5084316;28;20092;-68
2022/12/24 03:27:34;;;;;;;92.00;30.40;;;14.80;62.00;;;;;;5081732;28;20077;-70
2022/12/24 03:30:03;;;;;;;98.22;31.77;;;14.80;62.30;;;;;;5083772;28;20096;-69
2022/12/24 03:32:31;;;;;;;88.10;27.73;;;14.70;62.40;;;;;;5087802;28;20156;-68
2022/12/24 03:34:58;;;;;;;82.97;30.30;;;14.70;62.50;;;;;;5081613;28;20073;-69
2022/12/24 03:37:25;;;;;;;96.85;33.00;;;14.70;62.80;;;;;;5087788;28;20085;-68
2022/12/24 03:39:52;;;;;;;98.32;31.70;;;14.60;63.40;;;;;;5080413;28;20085;-70
2022/12/24 03:42:18;;;;;;;107.63;33.45;;;14.60;63.50;;;;;;5081186;28;20077;-69
2022/12/24 03:44:44;;;;;;;;;;;14.50;63.90;;;;;;5081821;28;20082;-69
2022/12/24 03:47:11;;;;;;;127.85;32.95;;;14.50;64.20;;;;;;5082048;28;19995;-70
2022/12/24 03:49:37;;;;;;;;;;;14.40;64.60;;;;;;5086070;28;20080;-69
2022/12/24 03:52:03;;;;;;;168.27;36.60;;;14.40;64.90;;;;;;5085327;28;19957;-69
2022/12/24 03:54:30;;;;;;;146.77;37.17;;;14.30;64.80;;;;;;5081520;28;20209;-68
2022/12/24 03:56:56;;;;;;;128.70;34.80;;;14.30;65.00;;;;;;5088034;28;20692;-68
2022/12/24 03:59:22;;;;;;;;;;;14.30;64.80;;;;;;5081838;28;20414;-67
2022/12/24 04:01:49;;;;;;;87.22;30.88;;;14.20;65.10;;;;;;5086231;28;19965;-68
2022/12/24 04:04:15;;;;;;;91.68;31.05;;;14.20;65.50;;;;;;5081526;28;20138;-68
2022/12/24 04:06:42;;;;;;;105.70;33.00;;;14.10;65.10;;;;;;5080294;28;20079;-69
2022/12/24 04:09:08;;;;;;;;;;;14.00;65.60;;;;;;5084888;28;20088;-67
2022/12/24 04:11:34;;;;;;;93.85;31.75;;;14.00;65.90;;;;;;5082307;28;19992;-68
2022/12/24 04:14:00;;;;;;;;;;;14.00;66.30;;;;;;5080600;28;20525;-68
2022/12/24 04:16:27;;;;;;;76.95;29.08;;;13.90;66.70;;;;;;5082358;28;19983;-67
2022/12/24 04:18:53;;;;;;;82.28;27.98;;;13.90;66.80;;;;;;5079246;28;20943;-67
2022/12/24 04:21:19;;;;;;;;;;;13.90;66.60;;;;;;5080484;28;20065;-68
2022/12/24 04:23:46;;;;;;;82.82;30.48;;;13.80;66.50;;;;;;5079719;28;19996;-63
2022/12/24 04:26:13;;;;;;;67.15;28.52;;;13.80;67.00;;;;;;5084006;28;20445;-67
2022/12/24 04:28:41;;;;;;;78.20;27.13;;;13.80;67.10;;;;;;5080447;28;20083;-67
2022/12/24 04:31:15;;;;;;;72.95;28.15;;;13.70;67.20;;;;;;5083155;28;20072;-69
2022/12/24 04:33:41;;;;;;;83.28;27.17;;;13.60;67.90;;;;;;5080209;28;20081;-67
2022/12/24 04:36:15;;;;;;;67.88;27.42;;;13.60;67.40;;;;;;5086622;28;20085;-69
2022/12/24 04:38:42;;;;;;;85.88;27.20;;;13.60;67.80;;;;;;5079332;28;20135;-67
2022/12/24 04:41:17;;;;;;;72.72;25.02;;;13.60;68.10;;;;;;5081738;28;20534;-67
2022/12/24 04:43:44;;;;;;;65.93;24.13;;;13.60;68.30;;;;;;5081362;28;20152;-69
2022/12/24 04:46:13;;;;;;;;;;;13.60;68.50;;;;;;5078247;28;20101;-68
2022/12/24 04:48:40;;;;;;;75.68;25.30;;;13.60;68.60;;;;;;5083508;28;19976;-69
2022/12/24 04:51:08;;;;;;;84.43;26.67;;;13.50;68.50;;;;;;5078895;28;20076;-68
2022/12/24 04:53:36;;;;;;;61.45;23.92;;;13.60;68.70;;;;;;5078072;28;20184;-70
2022/12/24 04:56:03;;;;;;;70.63;25.38;;;13.50;69.30;;;;;;5079124;28;20162;-68
2022/12/24 04:58:30;;;;;;;84.43;26.40;;;13.50;69.90;;;;;;5081614;28;20156;-69
2022/12/24 05:00:56;;;;;;;82.10;29.23;;;13.50;69.90;;;;;;5083932;28;20065;-68
2022/12/24 05:03:22;;;;;;;;;;;13.50;70.00;;;;;;5082800;28;20073;-69
2022/12/24 05:05:49;;;;;;;88.90;30.52;;;13.40;70.10;;;;;;5080093;28;20352;-69
2022/12/24 05:08:15;;;;;;;;;;;13.40;70.40;;;;;;5082509;28;20076;-68
2022/12/24 05:10:41;;;;;;;79.53;28.67;;;13.40;70.10;;;;;;5082586;28;19957;-67
2022/12/24 05:13:07;;;;;;;88.57;28.75;;;13.40;70.50;;;;;;5081886;28;20069;-67
2022/12/24 05:15:34;;;;;;;;;;;13.30;70.10;;;;;;5080606;28;20081;-68
2022/12/24 05:18:00;;;;;;;88.35;30.45;;;13.30;70.10;;;;;;5079307;28;20002;-69
2022/12/24 05:20:26;;;;;;;82.90;28.63;;;13.20;70.50;;;;;;5081455;28;20107;-65
2022/12/24 05:28:24;;;;;;;104.35;45.42;;;13.20;70.80;;;;;;5079601;28;20555;-67
2022/12/24 05:30:50;;;;;;;109.88;43.25;;;13.20;71.00;;;;;;5081794;28;20250;-66
2022/12/24 05:33:17;;;;;;;113.57;41.38;;;13.10;71.20;;;;;;5077573;28;20096;-67
2022/12/24 05:35:43;;;;;;;103.22;42.17;;;13.00;71.20;;;;;;5080627;28;20093;-68
2022/12/24 05:38:09;;;;;;;;;;;13.10;71.60;;;;;;5078212;28;20093;-70
2022/12/24 05:40:36;;;;;;;111.30;39.45;;;13.00;71.50;;;;;;5079582;28;19963;-71
2022/12/24 05:43:02;;;;;;;;;;;12.90;71.50;;;;;;5078077;28;20091;-69
2022/12/24 05:45:28;;;;;;;108.72;38.63;;;13.00;72.30;;;;;;5078633;28;19963;-70
2022/12/24 05:47:54;;;;;;;;;;;12.90;72.30;;;;;;5079042;28;20092;-68
2022/12/24 05:50:21;;;;;;;101.50;39.78;;;12.80;72.10;;;;;;5082914;28;19964;-69
2022/12/24 05:52:47;;;;;;;;;;;12.90;72.40;;;;;;5082523;28;20143;-68
2022/12/24 05:55:13;;;;;;;114.75;38.08;;;12.80;72.70;;;;;;5079835;28;20048;-68
2022/12/24 05:57:40;;;;;;;;;;;12.80;73.50;;;;;;5084728;28;20116;-70
2022/12/24 06:00:07;;;;;;;103.20;37.07;;;12.80;73.40;;;;;;5082927;28;20412;-67
2022/12/24 06:02:33;;;;;;;104.00;40.28;;;12.80;73.50;;;;;;5079786;28;20325;-67
2022/12/24 06:04:59;;;;;;;;;;;12.70;73.50;;;;;;5082659;28;20074;-69
2022/12/24 06:07:26;;;;;;;127.68;40.80;;;12.70;73.40;;;;;;5082089;28;19973;-69
2022/12/24 06:09:52;;;;;;;;;;;12.60;73.20;;;;;;5081661;28;20135;-69
2022/12/24 06:12:18;;;;;;;97.95;39.00;;;12.60;73.50;;;;;;5083820;28;20067;-69
2022/12/24 06:14:44;;;;;;;;;;;12.60;73.60;;;;;;5079895;28;20107;-64
2022/12/24 06:17:11;;;;;;;100.30;36.10;;;12.90;75.10;;;;;;5080117;28;19976;-67
2022/12/24 06:19:37;;;;;;;;;;;13.70;73.00;;;;;;5079332;28;20138;-65
2022/12/24 06:22:03;;;;;;;100.90;41.72;;;14.20;70.00;;;;;;5077740;28;20043;-67
2022/12/24 06:24:29;;;;;;;;;;;14.60;67.60;;;;;;5083251;28;20627;-66
2022/12/24 06:26:55;;;;;;;88.38;35.97;;;14.70;66.60;;;;;;5080580;28;19961;-66
2022/12/24 06:29:21;;;;;;;;;;;14.70;66.40;;;;;;5084362;28;20101;-66
2022/12/24 06:31:48;;;;;;;87.28;32.58;;;14.90;66.20;;;;;;5079699;28;19961;-65
2022/12/24 06:34:14;;;;;;;;;;;14.80;65.80;;;;;;5079253;28;20081;-66
2022/12/24 06:36:40;;;;;;;102.00;35.65;;;14.90;65.00;;;;;;5080098;28;20386;-65
2022/12/24 06:39:06;;;;;;;;;;;15.00;65.30;;;;;;5077440;28;20068;-66
2022/12/24 06:41:33;;;;;;;82.63;29.63;;;15.10;64.00;;;;;;5074109;28;19980;-66
2022/12/24 06:43:59;;;;;;;;;;;15.10;63.30;;;;;;5086747;28;20148;-65
2022/12/24 06:46:26;;;;;;;66.38;24.17;;;15.00;63.90;;;;;;5080747;28;20417;-65
2022/12/24 06:48:53;;;;;;;70.70;25.92;;;14.90;63.80;;;;;;5079657;28;20126;-66
2022/12/24 06:51:20;;;;;;;69.00;25.80;;;14.90;63.90;;;;;;5079799;28;20138;-66
2022/12/24 06:53:51;;;;;;;71.22;28.05;;;15.00;64.00;;;;;;5079073;28;20097;-64
2022/12/24 06:56:19;;;;;;;74.47;25.77;;;15.00;63.50;;;;;;5079433;28;20141;-66
2022/12/24 06:58:46;;;;;;;80.03;25.25;;;14.90;63.70;;;;;;5078805;28;20077;-64
2022/12/24 07:01:15;;;;;;;65.93;22.42;;;14.90;63.80;;;;;;5077968;28;20230;-64
2022/12/24 07:03:41;;;;;;;65.78;22.33;;;14.80;63.70;;;;;;5075297;28;20449;-64
2022/12/24 07:06:17;;;;;;;57.78;22.25;;;14.80;63.80;;;;;;5079300;28;20072;-64
2022/12/24 07:08:43;;;;;;;64.63;21.15;;;14.80;63.30;;;;;;5077161;28;20096;-64
2022/12/24 07:11:09;;;;;;;;;;;14.80;63.50;;;;;;5082014;28;20064;-64
2022/12/24 07:13:36;;;;;;;71.18;21.95;;;14.70;63.20;;;;;;5079218;28;19968;-64
2022/12/24 07:16:02;;;;;;;;;;;14.60;63.40;;;;;;5078901;28;20073;-66
2022/12/24 07:18:30;;;;;;;58.70;19.23;;;14.50;64.10;;;;;;5076663;28;19956;-66
2022/12/24 07:20:57;;;;;;;45.20;18.30;;;14.40;64.40;;;;;;5076411;28;20475;-64
2022/12/24 07:23:23;;;;;;;56.15;19.48;;;14.30;65.90;;;;;;5072442;28;20080;-63
2022/12/24 07:25:50;;;;;;;59.28;19.73;;;14.20;65.40;;;;;;5080297;28;20116;-65
2022/12/24 07:28:16;;;;;;;;;;;14.10;65.30;;;;;;5082217;28;20091;-63
2022/12/24 07:30:43;;;;;;;60.45;24.90;;;14.10;66.00;;;;;;5076216;28;20007;-67
2022/12/24 07:33:09;;;;;;;;;;;14.00;66.20;;;;;;5077380;28;20090;-66
2022/12/24 07:35:35;;;;;;;64.40;26.75;;;13.90;67.70;;;;;;5077862;28;19956;-67
2022/12/24 07:38:01;;;;;;;;;;;13.80;67.70;;;;;;5077248;28;20088;-64
2022/12/24 07:40:28;;;;;;;65.35;26.40;;;13.60;67.90;;;;;;5077944;28;19960;-64
2022/12/24 07:42:54;;;;;;;;;;;13.50;67.70;;;;;;5080779;28;20120;-65
2022/12/24 07:45:20;;;;;;;71.47;29.13;;;13.40;68.30;;;;;;5078757;28;20003;-64
2022/12/24 07:47:46;;;;;;;;;;;13.40;68.20;;;;;;5082408;28;20081;-65
2022/12/24 07:50:12;;;;;;;84.78;28.05;;;14.40;68.70;;;;;;5077231;28;19964;-64
2022/12/24 07:52:38;;;;;;;;;;;13.60;68.20;;;;;;5078941;28;20085;-64
2022/12/24 07:55:05;;;;;;;61.97;26.20;;;13.50;67.80;;;;;;5078070;28;19959;-65
2022/12/24 07:57:32;;;;;;;65.30;26.10;;;13.50;67.70;;;;;;5080863;28;20116;-64
2022/12/24 07:59:58;;;;;;;;;;;13.50;68.00;;;;;;5078927;28;20069;-65
2022/12/24 08:02:24;;;;;;;78.00;26.98;;;13.30;68.30;;;;;;5077062;28;19961;-64
2022/12/24 08:04:50;;;;;;;;;;;13.30;68.30;;;;;;5081711;28;20073;-64
2022/12/24 08:07:17;;;;;;;85.35;29.67;;;13.30;68.80;;;;;;5081266;28;19957;-65
2022/12/24 08:09:44;;;;;;;;;;;13.10;68.90;;;;;;5081021;28;20065;-64
2022/12/24 08:12:11;;;;;;;73.15;25.25;;;13.10;68.70;;;;;;5085028;28;19963;-66
2022/12/24 08:14:37;;;;;;;78.55;25.27;;;13.20;67.90;;;;;;5086319;28;20557;-65
2022/12/24 08:17:03;;;;;;;;;;;13.10;67.80;;;;;;5085328;28;20088;-64
2022/12/24 08:19:30;;;;;;;70.32;25.55;;;13.10;68.30;;;;;;5081820;28;19980;-66
2022/12/24 08:21:56;;;;;;;;;;;13.00;69.20;;;;;;5085254;28;20152;-64
2022/12/24 08:24:22;;;;;;;59.60;24.58;;;12.90;68.90;;;;;;5083798;28;20095;-67
2022/12/24 08:26:48;;;;;;;;;;;12.70;68.80;;;;;;5084624;28;20072;-64
2022/12/24 08:29:15;;;;;;;71.80;24.50;;;12.90;68.60;;;;;;5083008;28;20051;-65
2022/12/24 08:31:41;;;;;;;65.88;23.13;;;12.90;68.10;;;;;;5078387;28;20604;-65
2022/12/24 08:34:09;;;;;;;53.90;23.00;;;12.90;67.70;;;;;;5081526;28;20104;-65
2022/12/24 08:36:36;;;;;;;54.38;20.52;;;13.00;65.80;;;;;;5082354;28;20089;-66
2022/12/24 08:39:02;;;;;;;;;;;12.90;65.30;;;;;;5085947;28;20068;-67
2022/12/24 08:41:30;;;;;;;46.95;17.83;;;13.00;64.50;;;;;;5079448;28;20338;-66
2022/12/24 08:43:57;;;;;;;45.63;18.60;;;12.80;65.30;;;;;;5083881;28;20738;-64
2022/12/24 08:46:23;;;;;;;45.67;17.25;;;12.80;66.30;;;;;;5079162;28;20087;-64
2022/12/24 08:48:50;;;;;;;42.00;17.25;;;12.70;66.20;;;;;;5085013;28;20450;-65
2022/12/24 08:51:18;;;;;;;47.05;16.23;;;12.70;66.00;;;;;;5077333;28;20066;-66
2022/12/24 08:53:45;;;;;;;41.60;15.25;;;12.70;65.30;;;;;;5081522;28;20077;-65
2022/12/24 08:56:12;;;;;;;33.08;14.05;;;12.60;64.80;;;;;;5080616;28;20169;-63
2022/12/24 08:58:39;;;;;;;34.88;13.57;;;12.50;65.30;;;;;;5080975;28;20060;-66
2022/12/24 09:01:17;;;;;;;33.15;13.75;;;12.40;65.60;;;;;;5085729;28;20081;-64
2022/12/24 09:03:43;;;;;;;38.90;14.27;;;12.20;67.10;;;;;;5082063;28;20095;-63
2022/12/24 09:06:10;;;;;;;37.17;14.55;;;12.10;67.10;;;;;;5078962;28;20077;-64
2022/12/24 09:08:37;;;;;;;39.92;14.02;;;12.20;66.50;;;;;;5082732;28;20077;-64
2022/12/24 09:11:06;;;;;;;33.53;13.30;;;12.00;67.00;;;;;;5078764;28;20076;-64
2022/12/24 09:13:32;;;;;;;30.17;12.93;;;12.00;67.70;;;;;;5080143;28;20073;-65
2022/12/24 09:15:59;;;;;;;37.83;12.63;;;12.10;67.50;;;;;;5080421;28;20155;-64
2022/12/24 09:18:29;;;;;;;35.60;12.20;;;12.10;67.30;;;;;;5081350;28;20084;-65
2022/12/24 09:21:04;;;;;;;26.75;11.82;;;12.10;66.80;;;;;;5081786;28;20073;-69
2022/12/24 09:23:33;;;;;;;31.48;10.43;;;12.00;65.80;;;;;;5082360;28;20372;-66
2022/12/24 09:26:00;;;;;;;28.73;9.38;;;12.00;65.80;;;;;;5080502;28;20119;-65
2022/12/24 09:28:26;;;;;;;24.38;8.02;;;11.90;65.00;;;;;;5081084;28;20143;-65
2022/12/24 09:30:58;;;;;;;;;;;11.90;64.30;;;;;;5084193;28;20147;-64
2022/12/24 09:33:35;;;;;;;17.35;6.82;;;11.90;63.60;;;;;;5080370;28;19956;-65
2022/12/24 09:36:05;;;;;;;14.98;7.13;;;12.00;63.20;;;;;;5080404;28;20546;-64
2022/12/24 09:38:31;;;;;;;15.82;7.75;;;12.00;63.20;;;;;;5082996;28;20154;-66
2022/12/24 09:40:59;;;;;;;24.38;12.25;;;11.90;63.40;;;;;;5083167;28;20084;-64
2022/12/24 09:43:32;;;;;;;24.38;11.73;;;11.80;63.00;;;;;;5078982;28;20173;-64
2022/12/24 09:46:26;;;;;;;26.33;10.77;;;11.80;63.10;;;;;;5081447;28;20077;-65
2022/12/24 09:48:58;;;;;;;27.08;9.75;;;11.80;62.80;;;;;;5083608;28;20502;-65
2022/12/24 09:51:44;;;;;;;25.10;8.80;;;11.70;63.00;;;;;;5081020;28;20517;-64
2022/12/24 09:54:40;;;;;;;30.73;9.43;;;11.80;62.60;;;;;;5080257;28;20155;-64
2022/12/24 09:57:32;;;;;;;29.90;10.00;;;11.80;63.20;;;;;;5081834;28;20104;-63
2022/12/24 09:59:59;;;;;;;25.20;10.15;;;11.70;63.80;;;;;;5078080;28;20081;-67
2022/12/24 10:02:25;;;;;;;;;;;11.50;64.50;;;;;;5084416;28;20065;-65
2022/12/24 10:04:51;;;;;;;38.85;11.55;;;11.50;64.60;;;;;;5078106;28;20388;-65
2022/12/24 10:07:31;;;;;;;31.42;12.40;;;10.70;63.60;;;;;;5083663;28;20100;-64
2022/12/24 10:10:03;;;;;;;24.10;10.57;;;11.40;64.50;;;;;;5080533;28;20500;-67
2022/12/24 10:12:54;;;;;;;32.53;12.20;;;11.40;64.80;;;;;;5073985;28;20088;-63
2022/12/24 10:15:43;;;;;;;26.95;11.98;;;11.30;65.30;;;;;;5076439;28;20068;-64
2022/12/24 10:18:31;;;;;;;31.00;13.57;;;11.40;66.20;;;;;;5075670;28;20096;-63
2022/12/24 10:21:12;;;;;;;30.85;14.35;;;11.50;64.20;;;;;;5078437;28;20111;-64
2022/12/24 10:23:47;;;;;;;36.95;13.63;;;11.50;64.60;;;;;;5081647;28;20096;-65
2022/12/24 10:26:54;;;;;;;26.80;11.73;;;11.40;64.70;;;;;;5076604;28;20083;-64
2022/12/24 10:29:26;;;;;;;30.40;11.10;;;11.50;64.80;;;;;;5018186;28;20077;-64
2022/12/24 10:32:20;;;;;;;27.60;10.90;;;11.50;65.00;;;;;;5012628;28;20409;-66
2022/12/24 10:34:56;;;;;;;24.05;10.85;;;11.40;64.70;;;;;;5010750;28;20089;-65
2022/12/24 10:37:24;;;;;;;26.70;10.10;;;11.20;65.80;;;;;;5011195;28;20158;-64
2022/12/24 10:39:52;;;;;;;26.60;9.32;;;11.20;65.10;;;;;;5018592;28;20083;-63
2022/12/24 10:42:21;;;;;;;21.92;9.27;;;11.20;65.10;;;;;;5021261;28;20077;-66
2022/12/24 10:44:53;;;;;;;23.08;9.32;;;11.20;65.90;;;;;;5014685;28;20075;-64
2022/12/24 10:47:21;;;;;;;27.90;9.32;;;11.20;66.30;;;;;;5011696;28;20161;-65
2022/12/24 10:50:11;;;;;;;24.10;9.20;;;11.10;66.60;;;;;;5016062;28;20490;-65
2022/12/24 10:52:41;;;;;;;21.83;9.05;;;11.10;66.60;;;;;;5004786;28;20513;-65
2022/12/24 10:55:22;;;;;;;26.70;8.70;;;11.00;66.20;;;;;;5011545;28;20236;-66
2022/12/24 10:58:01;;;;;;;20.98;9.77;;;11.00;65.80;;;;;;5012612;28;20120;-65
2022/12/24 11:00:29;;;;;;;22.50;8.25;;;11.00;66.00;;;;;;5059605;28;20130;-64
2022/12/24 11:03:26;;;;;;;23.45;8.57;;;11.00;66.10;;;;;;5077880;28;20555;-65
2022/12/24 11:06:03;;;;;;;28.83;8.63;;;11.00;66.50;;;;;;5076684;28;21542;-66
2022/12/24 11:08:29;;;;;;;23.65;8.85;;;10.90;66.50;;;;;;5075926;28;20091;-64
2022/12/24 11:10:57;;;;;;;21.88;7.53;;;10.80;66.40;;;;;;5075929;28;20080;-63
2022/12/24 11:13:26;;;;;;;18.77;7.60;;;10.90;66.40;;;;;;5077946;28;20123;-65
2022/12/24 11:16:06;;;;;;;18.77;7.82;;;10.80;66.30;;;;;;5084288;28;20170;-64
2022/12/24 11:18:37;;;;;;;23.10;9.00;;;10.70;66.80;;;;;;5079453;28;20477;-66
2022/12/24 11:21:05;;;;;;;17.98;6.63;;;10.60;68.60;;;;;;5081834;28;20122;-65
2022/12/24 11:23:31;;;;;;;15.50;7.22;;;10.60;68.00;;;;;;5079833;28;20071;-66
2022/12/24 11:25:58;;;;;;;14.65;7.00;;;10.70;67.70;;;;;;5078006;28;20103;-66
2022/12/24 11:28:31;;;;;;;15.25;7.32;;;10.70;67.50;;;;;;5078967;28;20081;-66
2022/12/24 11:31:24;;;;;;;17.52;8.73;;;10.70;66.80;;;;;;5078953;28;20508;-64
2022/12/24 11:33:52;;;;;;;18.80;7.95;;;10.60;66.80;;;;;;5075879;28;20089;-66
2022/12/24 11:36:22;;;;;;;20.80;8.23;;;10.60;67.30;;;;;;5079477;28;20095;-63
2022/12/24 11:38:57;;;;;;;25.48;8.77;;;10.60;68.10;;;;;;5078262;28;20108;-66
2022/12/24 11:41:25;;;;;;;25.25;8.73;;;10.60;67.40;;;;;;5081869;28;20076;-65
2022/12/24 11:44:06;;;;;;;21.42;8.45;;;10.50;67.60;;;;;;5083529;28;20071;-64
2022/12/24 11:46:37;;;;;;;20.98;8.40;;;10.50;68.10;;;;;;5080037;28;20072;-64
2022/12/24 11:49:15;;;;;;;21.00;8.68;;;10.50;68.50;;;;;;5084472;28;20081;-65
2022/12/24 11:52:09;;;;;;;16.60;8.05;;;10.50;68.80;;;;;;5082032;28;20069;-67
2022/12/24 11:55:14;;;;;;;21.52;8.07;;;10.50;69.50;;;;;;5083207;28;20100;-64
2022/12/24 11:57:49;;;;;;;16.67;7.80;;;10.50;69.00;;;;;;5020889;28;20527;-66
2022/12/24 12:00:16;;;;;;;18.25;8.55;;;10.30;69.00;;;;;;5019093;28;20083;-64
2022/12/24 12:02:46;;;;;;;24.30;8.75;;;10.30;68.90;;;;;;5019749;28;20077;-64
2022/12/24 12:05:30;;;;;;;22.10;9.00;;;10.40;69.00;;;;;;5014994;28;20653;-65
2022/12/24 12:08:13;;;;;;;17.73;8.48;;;10.30;70.00;;;;;;5015533;28;20086;-65
2022/12/24 12:10:42;;;;;;;30.52;8.93;;;10.30;70.20;;;;;;5013065;28;20582;-65
2022/12/24 12:13:26;;;;;;;23.33;9.18;;;10.20;70.20;;;;;;5015378;28;20122;-66
2022/12/24 12:16:13;;;;;;;28.50;8.85;;;10.20;70.90;;;;;;5019650;28;20074;-66
2022/12/24 12:18:46;;;;;;;28.63;9.27;;;10.10;71.00;;;;;;5013678;28;20157;-66
2022/12/24 12:21:23;;;;;;;26.30;9.32;;;10.10;70.60;;;;;;5015283;28;20120;-64
2022/12/24 12:24:00;;;;;;;;;;;10.10;70.50;;;;;;5012975;28;20106;-66
2022/12/24 12:26:28;;;;;;;26.88;9.38;;;10.10;70.70;;;;;;5014775;28;19973;-64
2022/12/24 12:28:54;;;;;;;26.88;8.90;;;10.10;70.30;;;;;;5018148;28;20078;-66
2022/12/24 12:31:23;;;;;;;;;;;9.80;70.50;;;;;;5018651;28;20077;-66
2022/12/24 12:33:59;;;;;;;33.42;10.02;;;9.90;71.20;;;;;;5051294;28;19966;-63
2022/12/24 12:36:45;;;;;;;28.67;10.65;;;9.90;71.20;;;;;;5063012;28;20168;-66
2022/12/24 12:39:12;;;;;;;25.70;9.93;;;10.00;70.50;;;;;;5064562;28;20064;-64
2022/12/24 12:41:45;;;;;;;31.98;11.10;;;10.00;70.60;;;;;;5060621;28;20127;-63
2022/12/24 12:44:40;;;;;;;29.08;10.48;;;10.00;71.30;;;;;;5056951;28;20168;-63
2022/12/24 12:47:34;;;;;;;28.92;11.35;;;9.90;71.70;;;;;;5061786;28;20093;-63
2022/12/24 12:50:28;;;;;;;28.77;11.77;;;9.90;71.90;;;;;;5060963;28;20597;-64
2022/12/24 12:53:19;;;;;;;30.20;13.50;;;9.90;71.70;;;;;;5060362;28;20081;-65
2022/12/24 12:56:19;;;;;;;40.58;14.07;;;9.80;71.50;;;;;;5063134;28;20093;-65
2022/12/24 12:58:52;;;;;;;36.22;13.90;;;9.80;71.90;;;;;;5086124;28;20077;-64
2022/12/24 13:01:24;;;;;;;29.83;13.10;;;9.70;72.50;;;;;;5081875;28;20156;-64
2022/12/24 13:04:28;;;;;;;38.03;16.63;;;9.80;73.20;;;;;;5082627;28;20085;-64
2022/12/24 13:07:22;;;;;;;51.88;18.23;;;9.70;72.80;;;;;;5079745;28;20081;-67
2022/12/24 13:09:59;;;;;;;42.53;17.13;;;9.60;73.50;;;;;;5085819;28;20101;-63
2022/12/24 13:12:46;;;;;;;;;;;9.50;73.50;;;;;;5082040;28;20078;-65
2022/12/24 13:16:11;;;;;;;48.78;20.50;;;9.50;74.10;;;;;;5084367;28;20010;-64